Time;durP1;ratioP1;P1;durP2;ratioP2;P2;SDS_P1;SDS_P2;PMS_P1;PMS_P2;Temp;Humidity;BMP_temperature;BMP_pressure;BME280_temperature;BME280_humidity;BME280_pressure;Samples;Min_cycle;Max_cycle;Signal;HPM_P1;HPM_P2
2022/08/11 02:51:57;;;;;;;5.75;0.45;;;17.10;75.30;;;;;;4823563;29;87274;-68
2022/08/11 02:54:35;;;;;;;2.58;0.50;;;17.00;75.00;;;;;;4827993;29;87196;-68
2022/08/11 02:57:26;;;;;;;1.75;0.60;;;16.90;76.30;;;;;;4825481;29;87701;-68
2022/08/11 03:00:13;;;;;;;2.65;0.40;;;16.80;76.90;;;;;;4824719;29;87128;-68
2022/08/11 03:02:54;;;;;;;3.67;0.43;;;16.90;76.70;;;;;;4823991;29;87010;-69
2022/08/11 03:05:42;;;;;;;2.88;0.60;;;16.90;77.00;;;;;;4823788;29;88262;-69
2022/08/11 03:08:11;;;;;;;5.47;0.47;;;16.90;75.70;;;;;;4822521;29;87274;-69
2022/08/11 03:16:43;;;;;;;2.17;0.40;;;16.90;75.70;;;;;;4821150;29;87126;-69
2022/08/11 03:17:20;;;;;;;1.63;0.50;;;16.90;76.20;;;;;;4823934;29;88501;-68
2022/08/11 03:19:53;;;;;;;1.90;0.55;;;16.90;75.80;;;;;;4825510;29;87213;-68
2022/08/11 03:22:25;;;;;;;1.30;0.60;;;16.80;75.80;;;;;;4823191;29;87109;-68
2022/08/11 03:25:10;;;;;;;3.00;0.50;;;16.70;77.40;;;;;;4826512;29;87288;-69
2022/08/11 03:27:36;;;;;;;3.80;0.70;;;16.70;77.70;;;;;;4807349;29;87057;-68
2022/08/11 03:30:29;;;;;;;4.82;0.50;;;16.60;77.90;;;;;;4817553;29;86949;-68
2022/08/11 03:36:33;;;;;;;2.47;0.82;;;16.50;78.70;;;;;;4825352;29;85875;-68
2022/08/11 03:39:23;;;;;;;4.32;0.60;;;16.50;78.00;;;;;;4767754;29;88200;-68
2022/08/11 03:42:25;;;;;;;1.40;0.30;;;16.60;78.10;;;;;;4820048;29;86774;-68
2022/08/11 03:45:23;;;;;;;4.72;1.02;;;16.60;78.20;;;;;;4810336;29;88059;-69
2022/08/11 03:47:54;;;;;;;2.70;0.40;;;16.50;78.00;;;;;;4825477;29;87035;-69
2022/08/11 03:50:58;;;;;;;2.15;0.57;;;16.50;78.30;;;;;;4823254;29;87763;-69
2022/08/11 03:53:49;;;;;;;3.45;0.30;;;16.50;78.50;;;;;;4819931;29;87073;-69
2022/08/11 03:56:32;;;;;;;1.85;0.50;;;16.50;79.20;;;;;;4824647;29;86933;-69
2022/08/11 03:59:17;;;;;;;2.50;0.30;;;16.50;79.00;;;;;;4825673;29;88113;-69
2022/08/11 04:02:05;;;;;;;3.25;0.50;;;16.40;79.50;;;;;;4821508;29;87071;-69
2022/08/11 04:04:55;;;;;;;1.40;0.40;;;16.30;79.50;;;;;;4822624;29;88335;-68
2022/08/11 04:07:44;;;;;;;1.75;0.40;;;16.40;79.80;;;;;;4816128;29;87037;-68
2022/08/11 04:10:31;;;;;;;1.50;0.40;;;16.30;80.30;;;;;;4823896;29;87262;-69
2022/08/11 04:13:08;;;;;;;4.20;0.38;;;16.30;80.20;;;;;;4824358;29;88185;-69
2022/08/11 04:16:02;;;;;;;2.28;0.57;;;16.40;80.10;;;;;;4823898;29;87219;-68
2022/08/11 04:18:50;;;;;;;3.28;0.45;;;16.40;79.80;;;;;;4824218;29;86969;-68
2022/08/11 04:22:03;;;;;;;1.25;0.38;;;16.40;80.50;;;;;;4818797;29;88045;-69
2022/08/11 04:25:14;;;;;;;4.95;0.52;;;16.40;80.00;;;;;;4815637;29;87225;-69
2022/08/11 04:28:21;;;;;;;2.67;0.77;;;16.40;79.50;;;;;;4817425;29;87257;-69
2022/08/11 04:31:09;;;;;;;3.42;0.50;;;16.40;79.70;;;;;;4817650;29;86936;-69
2022/08/11 04:34:23;;;;;;;2.83;0.50;;;16.40;80.80;;;;;;4819976;29;86526;-69
2022/08/11 04:40:26;;;;;;;1.52;0.50;;;16.70;80.10;;;;;;4820724;29;87233;-69
2022/08/11 04:43:20;;;;;;;3.65;0.60;;;17.40;78.70;;;;;;4819169;29;89923;-69
2022/08/11 04:46:07;;;;;;;3.22;0.60;;;17.90;76.80;;;;;;4817688;29;87186;-69
2022/08/11 05:02:08;;;;;;;2.22;0.50;;;20.80;69.40;;;;;;4827466;29;86950;-68
2022/08/11 05:08:12;;;;;;;3.88;0.70;;;22.20;64.60;;;;;;4822944;29;87152;-68
2022/08/11 05:11:01;;;;;;;4.40;0.82;;;23.00;62.10;;;;;;4822806;29;86581;-68
2022/08/11 05:36:53;;;;;;;4.90;1.15;;;25.60;53.80;;;;;;4820603;29;87316;-71
2022/08/11 05:56:19;;;;;;;5.03;1.02;;;26.60;52.30;;;;;;4825194;29;87046;-71
2022/08/11 05:58:53;;;;;;;2.28;0.93;;;27.30;50.00;;;;;;4824021;29;87410;-70
2022/08/11 06:01:25;;;;;;;3.95;0.93;;;27.60;50.80;;;;;;4821520;29;87960;-70
2022/08/11 06:04:13;;;;;;;3.05;0.90;;;27.60;49.40;;;;;;4821122;29;89438;-71
2022/08/11 06:06:45;;;;;;;2.28;1.08;;;27.80;49.60;;;;;;4821736;29;86879;-70
2022/08/11 06:09:13;;;;;;;3.13;0.80;;;28.20;49.40;;;;;;4824052;29;88359;-71
2022/08/11 06:11:41;;;;;;;2.15;1.00;;;28.80;49.10;;;;;;4825405;29;87891;-78
2022/08/11 06:14:09;;;;;;;2.92;0.90;;;30.10;47.40;;;;;;4824971;29;87099;-77
2022/08/11 06:16:36;;;;;;;2.00;0.88;;;31.00;44.60;;;;;;4822440;29;87182;-77
2022/08/11 06:19:04;;;;;;;1.73;1.02;;;30.40;46.90;;;;;;4824834;29;87005;-77
2022/08/11 06:21:34;;;;;;;3.13;1.23;;;31.60;44.80;;;;;;4827166;29;88286;-77
2022/08/11 06:24:04;;;;;;;3.15;1.17;;;31.40;45.30;;;;;;4826597;29;86693;-77
2022/08/11 06:26:30;;;;;;;3.88;1.65;;;31.80;45.30;;;;;;4828904;29;86250;-78
2022/08/11 06:28:58;;;;;;;3.90;0.85;;;32.00;44.80;;;;;;4825179;29;87858;-77
2022/08/11 06:31:25;;;;;;;4.55;1.50;;;31.70;45.00;;;;;;4825028;29;86920;-78
2022/08/11 06:34:06;;;;;;;4.25;1.42;;;31.60;45.90;;;;;;4827254;29;88790;-79
2022/08/11 06:36:42;;;;;;;2.30;1.23;;;33.00;45.40;;;;;;4825463;29;87020;-79
2022/08/11 06:39:39;;;;;;;2.75;1.48;;;34.70;41.80;;;;;;4831486;29;87124;-77
2022/08/11 06:42:10;;;;;;;4.28;1.77;;;35.00;42.40;;;;;;4830316;29;87949;-77
2022/08/11 06:44:41;;;;;;;2.75;1.45;;;35.80;40.70;;;;;;4829808;29;87153;-79
2022/08/11 06:47:09;;;;;;;2.85;1.40;;;35.90;39.80;;;;;;4822488;29;86806;-78
2022/08/11 06:52:35;;;;;;;4.88;2.13;;;36.40;38.80;;;;;;4834224;23;86377;-77
2022/08/11 06:55:14;;;;;;;3.58;2.00;;;35.40;39.70;;;;;;4803334;29;87554;-77
2022/08/11 07:00:33;;;;;;;4.88;1.70;;;35.90;39.90;;;;;;5034724;23;88946;-79
2022/08/11 07:03:07;;;;;;;4.72;2.22;;;36.30;39.20;;;;;;4821698;29;87195;-76
2022/08/11 07:05:57;;;;;;;1.95;1.52;;;35.00;41.00;;;;;;4822152;29;87387;-77
2022/08/11 07:17:20;;;;;;;4.32;2.53;;;38.40;37.10;;;;;;4824463;29;86923;-76
2022/08/11 07:28:57;;;;;;;4.57;2.53;;;39.30;35.90;;;;;;4822494;29;88227;-77
2022/08/11 07:31:42;;;;;;;4.35;2.58;;;39.90;35.50;;;;;;4826953;29;87007;-77
2022/08/11 07:34:18;;;;;;;6.90;2.72;;;39.30;36.40;;;;;;4807421;29;88029;-76
2022/08/11 07:36:51;;;;;;;3.15;2.40;;;39.80;34.40;;;;;;4821701;29;88646;-77
2022/08/11 07:39:30;;;;;;;4.30;2.80;;;40.70;35.10;;;;;;4824903;29;86771;-77
2022/08/11 07:41:58;;;;;;;2.80;2.40;;;39.50;34.60;;;;;;4822873;29;88020;-78
2022/08/11 07:44:28;;;;;;;5.88;2.75;;;40.20;34.90;;;;;;4817148;29;87667;-75
2022/08/11 07:52:36;;;;;;;3.45;2.70;;;40.30;34.90;;;;;;4824871;29;86777;-79
2022/08/11 07:55:15;;;;;;;3.90;2.78;;;41.10;34.20;;;;;;4818713;29;88249;-78
2022/08/11 08:19:50;;;;;;;5.03;3.67;;;43.00;32.20;;;;;;4823251;29;87055;-78
2022/08/11 08:22:18;;;;;;;6.75;4.20;;;43.20;31.80;;;;;;4823564;29;87541;-78
2022/08/11 08:24:45;;;;;;;4.93;4.00;;;42.80;31.80;;;;;;4823527;29;86915;-78
2022/08/11 08:27:13;;;;;;;7.68;4.20;;;43.50;31.60;;;;;;4823294;29;87201;-78
2022/08/11 08:32:26;;;;;;;6.55;4.15;;;44.00;31.30;;;;;;4824360;29;87399;-79
2022/08/11 08:34:54;;;;;;;;;;;43.80;31.70;;;;;;4821697;29;86325;-78
2022/08/11 08:37:28;;;;;;;3.70;2.80;;;43.00;32.10;;;;;;4820235;29;89863;-79
2022/08/11 08:39:55;;;;;;;5.93;3.75;;;42.10;32.10;;;;;;4824566;29;87047;-78
2022/08/11 08:42:27;;;;;;;5.55;3.58;;;42.00;31.90;;;;;;4823753;29;86303;-78
2022/08/11 08:45:06;;;;;;;4.60;4.20;;;41.70;33.20;;;;;;4824337;29;86978;-78
2022/08/11 08:47:37;;;;;;;4.18;3.72;;;42.30;32.50;;;;;;4823407;29;88072;-78
2022/08/11 08:50:10;;;;;;;4.65;3.65;;;41.30;33.30;;;;;;4824672;29;87995;-78
2022/08/11 08:52:47;;;;;;;4.70;3.63;;;42.20;31.90;;;;;;4825135;29;86285;-80
2022/08/11 08:55:18;;;;;;;3.85;3.20;;;42.40;31.40;;;;;;4820805;29;86364;-78
2022/08/11 08:57:45;;;;;;;4.38;3.85;;;42.90;31.60;;;;;;4821794;29;86822;-79
2022/08/11 09:00:14;;;;;;;6.35;3.33;;;43.40;31.50;;;;;;4823232;29;87149;-78
2022/08/11 09:02:41;;;;;;;3.38;2.92;;;44.50;31.50;;;;;;4820372;29;87217;-79
2022/08/11 09:05:08;;;;;;;4.07;3.63;;;44.20;30.60;;;;;;4819620;29;86359;-80
2022/08/11 09:07:35;;;;;;;4.30;3.75;;;46.40;29.70;;;;;;4820953;29;87195;-79
2022/08/11 09:10:02;;;;;;;5.88;3.70;;;46.50;29.70;;;;;;4824151;29;87128;-79
2022/08/11 09:12:30;;;;;;;5.43;4.05;;;47.20;29.00;;;;;;4822532;29;87607;-79
2022/08/11 09:15:00;;;;;;;7.63;5.13;;;46.40;29.20;;;;;;4821274;29;86995;-79
2022/08/11 09:17:28;;;;;;;4.05;3.72;;;46.60;29.00;;;;;;4825026;29;86771;-80
2022/08/11 09:19:57;;;;;;;;;;;45.50;29.60;;;;;;4823630;29;87079;-80
2022/08/11 09:27:55;;;;;;;4.65;3.88;;;45.30;29.80;;;;;;4822304;29;86898;-80
2022/08/11 09:30:26;;;;;;;6.72;4.88;;;46.90;29.30;;;;;;4825038;29;86294;-78
2022/08/11 09:32:59;;;;;;;5.55;5.00;;;46.30;29.30;;;;;;4824572;29;86823;-79
2022/08/11 09:35:29;;;;;;;5.90;5.05;;;47.80;28.70;;;;;;4825521;29;86228;-77
2022/08/11 09:40:46;;;;;;;5.88;5.38;;;46.10;28.80;;;;;;4821218;29;87054;-80
2022/08/11 09:46:03;;;;;;;5.72;3.78;;;46.50;29.20;;;;;;4821845;29;86759;-80
2022/08/11 09:48:42;;;;;;;7.40;5.68;;;48.70;28.20;;;;;;4827391;29;86810;-80
2022/08/11 09:51:09;;;;;;;4.47;4.05;;;47.70;28.60;;;;;;4824893;29;86376;-80
2022/08/11 09:53:41;;;;;;;5.65;5.15;;;48.40;28.40;;;;;;4823745;29;86960;-80
2022/08/11 09:59:04;;;;;;;5.78;5.10;;;48.60;28.20;;;;;;4824082;29;86747;-80
2022/08/11 10:01:36;;;;;;;6.50;5.50;;;46.30;29.30;;;;;;4824505;29;87229;-80
2022/08/11 10:04:14;;;;;;;7.40;4.32;;;44.80;30.20;;;;;;4824885;29;87518;-79
2022/08/11 10:09:26;;;;;;;7.07;4.80;;;45.70;29.80;;;;;;4821132;29;86743;-79
2022/08/11 10:11:56;;;;;;;5.63;3.85;;;46.60;29.10;;;;;;4818002;29;88412;-78
2022/08/11 10:17:09;;;;;;;5.07;4.65;;;44.60;30.70;;;;;;4823605;29;86828;-79
2022/08/11 10:19:39;;;;;;;4.82;3.65;;;42.20;31.60;;;;;;4827512;29;87428;-80
2022/08/11 10:27:42;;;;;;;3.22;2.83;;;35.10;38.80;;;;;;4825663;29;86569;-79
2022/08/11 10:35:37;;;;;;;6.32;2.83;;;31.40;45.10;;;;;;4822423;29;86889;-79
2022/08/11 10:38:04;;;;;;;3.63;2.72;;;30.40;47.30;;;;;;4824016;29;86348;-79
2022/08/11 10:40:31;;;;;;;3.70;2.30;;;30.00;46.30;;;;;;4815791;29;86992;-81
2022/08/11 10:43:04;;;;;;;3.00;1.40;;;30.50;45.70;;;;;;4822485;29;87054;-79
2022/08/11 10:48:20;;;;;;;3.08;1.95;;;30.00;47.30;;;;;;4818687;29;85575;-83
2022/08/11 10:59:07;;;;;;;4.00;1.17;;;30.10;47.60;;;;;;4821994;29;86386;-81
2022/08/11 11:01:38;;;;;;;7.90;1.70;;;29.60;50.40;;;;;;4829404;29;87408;-79
2022/08/11 11:04:13;;;;;;;3.90;1.90;;;29.90;50.00;;;;;;4826729;29;87049;-78
2022/08/11 11:06:53;;;;;;;5.70;1.70;;;29.50;50.10;;;;;;4829655;29;87330;-79
2022/08/11 11:09:31;;;;;;;3.22;1.58;;;29.20;50.20;;;;;;4826919;29;86329;-79
2022/08/11 11:17:56;;;;;;;4.55;1.08;;;29.30;50.20;;;;;;4827625;29;87818;-77
2022/08/11 11:20:34;;;;;;;7.07;1.48;;;29.00;50.50;;;;;;4824579;29;86694;-77
2022/08/11 11:23:06;;;;;;;2.67;1.30;;;29.20;49.60;;;;;;4821262;29;88955;-79
2022/08/11 11:26:05;;;;;;;3.97;1.42;;;29.30;48.50;;;;;;4824693;29;87080;-79
2022/08/11 11:29:08;;;;;;;4.93;1.52;;;29.60;48.90;;;;;;4828047;29;86750;-77
2022/08/11 11:31:39;;;;;;;2.08;1.35;;;29.30;49.80;;;;;;4829280;29;86821;-78
2022/08/11 11:34:36;;;;;;;4.57;1.13;;;29.60;48.20;;;;;;4828174;29;87338;-79
2022/08/11 11:37:02;;;;;;;2.05;1.00;;;29.50;48.70;;;;;;4825967;29;87405;-79
2022/08/11 11:39:31;;;;;;;2.20;1.05;;;29.50;50.10;;;;;;4829579;29;86627;-79
2022/08/11 11:42:03;;;;;;;3.50;1.20;;;29.50;50.00;;;;;;4829002;29;85599;-80
2022/08/11 11:44:30;;;;;;;2.55;1.45;;;29.40;49.80;;;;;;4828941;29;87161;-81
2022/08/11 11:46:57;;;;;;;4.43;1.23;;;29.00;50.50;;;;;;4829153;29;86874;-80
2022/08/11 11:49:27;;;;;;;5.82;1.75;;;29.10;48.60;;;;;;4828622;29;87669;-80
2022/08/11 11:51:54;;;;;;;5.07;1.55;;;29.10;50.30;;;;;;4828798;29;86436;-79
2022/08/11 11:54:32;;;;;;;6.50;1.85;;;28.70;50.60;;;;;;4828769;29;86830;-79
2022/08/11 12:01:14;;;;;;;7.32;1.42;;;28.70;51.40;;;;;;4824730;29;87491;-79
2022/08/11 12:02:32;;;;;;;4.00;1.38;;;29.00;51.20;;;;;;4817595;29;86930;-80
2022/08/11 12:04:57;;;;;;;5.07;1.40;;;28.80;53.10;;;;;;4820036;29;87060;-79
2022/08/11 12:10:08;;;;;;;5.63;1.45;;;28.80;53.70;;;;;;4823510;29;86644;-80
2022/08/11 12:15:19;;;;;;;5.15;1.48;;;28.80;54.00;;;;;;4824009;29;87830;-81
2022/08/11 12:17:45;;;;;;;4.63;1.70;;;28.90;50.20;;;;;;4822778;29;87810;-79
2022/08/11 12:20:15;;;;;;;3.03;1.40;;;28.70;52.70;;;;;;4819459;29;86615;-80
2022/08/11 12:28:10;;;;;;;8.48;1.65;;;28.70;51.50;;;;;;4822334;29;86936;-80
2022/08/11 12:30:40;;;;;;;5.50;1.48;;;28.80;55.00;;;;;;4823580;29;87115;-80
2022/08/11 12:33:07;;;;;;;5.28;1.95;;;28.70;53.50;;;;;;4822518;29;85881;-79
2022/08/11 12:35:34;;;;;;;3.22;1.20;;;28.80;54.90;;;;;;4816999;29;87297;-81
2022/08/11 12:38:02;;;;;;;4.10;1.40;;;29.00;54.10;;;;;;4818560;29;87074;-79
2022/08/11 12:46:06;;;;;;;4.38;1.92;;;29.00;51.80;;;;;;4824115;29;87474;-80
2022/08/11 12:54:22;;;;;;;5.60;1.63;;;28.10;54.00;;;;;;4824387;29;87081;-80
2022/08/11 13:05:14;;;;;;;2.60;1.38;;;28.40;51.80;;;;;;4823495;29;86294;-80
2022/08/11 13:07:43;;;;;;;5.88;1.73;;;28.40;54.30;;;;;;4819811;29;87486;-80
2022/08/11 13:10:11;;;;;;;4.10;1.40;;;28.20;53.40;;;;;;4822374;29;87467;-80
2022/08/11 13:12:47;;;;;;;2.78;1.35;;;28.40;54.30;;;;;;4822896;29;87536;-79
2022/08/11 13:15:24;;;;;;;3.30;1.40;;;28.40;55.00;;;;;;4823259;29;87020;-79
2022/08/11 13:17:54;;;;;;;2.85;1.63;;;28.60;54.80;;;;;;4823020;29;86686;-80
2022/08/11 13:20:22;;;;;;;3.42;1.73;;;28.70;52.70;;;;;;4822156;29;86863;-80
2022/08/11 13:22:50;;;;;;;2.67;1.20;;;28.50;55.00;;;;;;4824537;29;86758;-80
2022/08/11 13:25:22;;;;;;;3.90;1.30;;;28.50;54.60;;;;;;4828656;29;85538;-81
2022/08/11 13:27:49;;;;;;;3.22;1.38;;;28.70;53.90;;;;;;4825763;29;86561;-79
2022/08/11 13:33:02;;;;;;;4.18;1.45;;;28.80;53.30;;;;;;4824490;29;87663;-79
2022/08/11 13:35:30;;;;;;;5.97;1.55;;;29.00;53.20;;;;;;4825118;29;86779;-80
2022/08/11 13:38:00;;;;;;;3.10;1.42;;;29.10;52.50;;;;;;4825742;29;87297;-80
2022/08/11 13:40:27;;;;;;;6.10;1.80;;;28.90;51.90;;;;;;4824538;29;86627;-79
2022/08/11 13:42:53;;;;;;;3.38;1.73;;;28.80;53.40;;;;;;4824093;29;86671;-80
2022/08/11 13:45:23;;;;;;;3.13;1.85;;;28.70;53.20;;;;;;4826509;29;86676;-80
2022/08/11 13:47:51;;;;;;;2.35;1.40;;;28.50;55.50;;;;;;4826246;29;87305;-82
2022/08/11 13:50:18;;;;;;;3.58;1.40;;;28.40;53.60;;;;;;4826008;29;87026;-80
2022/08/11 13:52:45;;;;;;;4.53;1.73;;;28.30;55.50;;;;;;4825167;29;87951;-79
2022/08/11 13:55:20;;;;;;;5.78;2.03;;;28.60;54.80;;;;;;4825993;29;86860;-80
2022/08/11 13:57:52;;;;;;;5.47;1.45;;;28.60;54.80;;;;;;4822987;29;88313;-80
2022/08/11 14:00:19;;;;;;;3.80;1.50;;;28.60;55.00;;;;;;4825064;29;87773;-80
2022/08/11 14:02:48;;;;;;;4.15;1.65;;;28.50;54.30;;;;;;4822701;29;86742;-81
2022/08/11 14:05:16;;;;;;;3.97;1.60;;;28.40;53.80;;;;;;4824409;29;86598;-81
2022/08/11 14:07:58;;;;;;;2.80;1.65;;;28.40;54.60;;;;;;4822448;29;86404;-79
2022/08/11 14:10:28;;;;;;;6.53;1.85;;;28.40;55.00;;;;;;4825580;29;87105;-79
2022/08/11 14:15:47;;;;;;;2.85;1.50;;;28.70;53.80;;;;;;4824796;29;86047;-78
2022/08/11 14:18:25;;;;;;;2.78;1.48;;;28.80;54.50;;;;;;4824349;29;87281;-78
2022/08/11 14:23:43;;;;;;;5.47;1.52;;;28.70;54.80;;;;;;4824909;29;87631;-80
2022/08/11 14:26:22;;;;;;;3.97;1.65;;;28.50;53.60;;;;;;4824502;29;87076;-79
2022/08/11 14:28:54;;;;;;;3.42;2.13;;;28.20;53.50;;;;;;4825154;29;87256;-78
2022/08/11 14:31:24;;;;;;;2.42;1.73;;;28.20;54.00;;;;;;4821205;29;87161;-78
2022/08/11 14:33:53;;;;;;;3.35;1.38;;;28.30;53.80;;;;;;4830641;29;86696;-80
2022/08/11 14:36:22;;;;;;;3.00;1.58;;;28.40;53.80;;;;;;4824914;29;86632;-80
2022/08/11 14:38:49;;;;;;;6.47;1.52;;;28.60;53.20;;;;;;4823194;29;87285;-80
2022/08/11 14:47:04;;;;;;;5.75;1.55;;;29.00;51.60;;;;;;4817844;29;86703;-80
2022/08/11 14:49:41;;;;;;;2.97;1.08;;;28.90;52.40;;;;;;4812384;29;89801;-80
2022/08/11 14:52:14;;;;;;;3.85;1.40;;;28.80;53.50;;;;;;4815759;29;88018;-78
2022/08/11 14:57:30;;;;;;;3.20;1.45;;;28.60;52.10;;;;;;4816767;29;86731;-81
2022/08/11 14:59:59;;;;;;;2.95;1.25;;;28.60;52.20;;;;;;4821476;29;88192;-81
2022/08/11 15:05:10;;;;;;;2.50;1.55;;;28.60;52.50;;;;;;4823834;29;87134;-80
2022/08/11 15:07:36;;;;;;;4.30;1.73;;;28.40;52.60;;;;;;4824017;29;86347;-80
2022/08/11 15:10:05;;;;;;;3.42;1.83;;;28.50;55.20;;;;;;4821838;29;87784;-79
2022/08/11 15:12:33;;;;;;;2.55;1.45;;;28.50;53.40;;;;;;4823358;29;86361;-80
2022/08/11 15:17:46;;;;;;;2.47;1.30;;;28.60;53.30;;;;;;4825700;29;86644;-80
2022/08/11 15:25:49;;;;;;;4.18;1.33;;;28.30;53.90;;;;;;4822110;29;87089;-81
2022/08/11 15:48:10;;;;;;;4.47;1.77;;;28.10;53.80;;;;;;4820434;29;86919;-79
2022/08/11 15:50:44;;;;;;;2.78;1.25;;;28.00;53.80;;;;;;4823684;29;87003;-80
2022/08/11 15:53:27;;;;;;;2.92;1.30;;;28.00;53.10;;;;;;4818825;29;86627;-79
2022/08/11 15:55:55;;;;;;;6.90;1.50;;;28.00;54.60;;;;;;4821413;29;86317;-80
2022/08/11 16:04:13;;;;;;;3.35;1.23;;;28.10;53.70;;;;;;4824209;29;86254;-80
2022/08/11 16:07:10;;;;;;;2.47;1.52;;;28.30;53.30;;;;;;4823992;29;86589;-80
2022/08/11 16:10:08;;;;;;;4.07;1.35;;;28.30;52.50;;;;;;4816338;29;87744;-80
2022/08/11 16:12:40;;;;;;;3.45;1.30;;;28.20;53.40;;;;;;4803821;29;87525;-78
2022/08/11 16:18:04;;;;;;;6.00;1.75;;;28.00;53.30;;;;;;4828771;29;87043;-78
2022/08/11 16:20:31;;;;;;;4.55;1.42;;;28.10;53.20;;;;;;4823899;29;86869;-79
2022/08/11 16:23:01;;;;;;;3.22;1.25;;;28.30;53.80;;;;;;4820492;29;87038;-77
2022/08/11 16:25:29;;;;;;;2.28;0.93;;;28.20;53.40;;;;;;4821220;29;89506;-79
2022/08/11 16:28:07;;;;;;;1.90;1.23;;;28.30;53.60;;;;;;4833699;29;86164;-81
2022/08/11 16:30:39;;;;;;;5.53;1.10;;;28.40;52.80;;;;;;4804971;29;86883;-82
2022/08/11 16:33:10;;;;;;;3.95;1.60;;;28.50;52.40;;;;;;4821245;29;86955;-80
2022/08/11 16:38:34;;;;;;;3.88;1.45;;;28.30;52.60;;;;;;4813500;29;87143;-80
2022/08/11 16:41:06;;;;;;;2.05;1.27;;;28.40;52.50;;;;;;4821813;29;86340;-81
2022/08/11 16:49:06;;;;;;;4.45;1.05;;;28.30;52.50;;;;;;4822944;29;87077;-80
2022/08/11 16:51:32;;;;;;;2.50;1.40;;;28.20;52.40;;;;;;4821746;29;87200;-80
2022/08/11 16:53:58;;;;;;;2.22;1.25;;;28.20;52.90;;;;;;4821725;29;85963;-79
2022/08/11 16:59:12;;;;;;;4.57;1.17;;;28.30;52.10;;;;;;4824920;29;87216;-79
2022/08/11 16:59:43;;;;;;;3.63;1.38;;;28.10;51.70;;;;;;4801886;29;89020;-79
2022/08/11 17:13:36;;;;;;;3.90;1.30;;;27.60;53.30;;;;;;4822739;29;87604;-78
2022/08/11 17:16:08;;;;;;;4.47;1.45;;;27.50;53.80;;;;;;4822892;29;87517;-79
2022/08/11 17:19:00;;;;;;;4.47;1.38;;;27.30;54.00;;;;;;4825530;29;87115;-80
2022/08/11 17:21:28;;;;;;;3.38;1.20;;;27.20;54.10;;;;;;4819670;29;87051;-80
2022/08/11 17:24:06;;;;;;;3.90;1.48;;;27.10;54.00;;;;;;4826188;29;86273;-82
2022/08/11 17:26:57;;;;;;;2.45;1.27;;;27.10;54.40;;;;;;4830632;29;86780;-80
2022/08/11 17:29:34;;;;;;;3.60;1.60;;;27.10;54.30;;;;;;4826286;29;88206;-78
2022/08/11 17:37:36;;;;;;;3.17;1.15;;;27.00;54.60;;;;;;4827006;29;87031;-80
2022/08/11 17:40:05;;;;;;;3.05;0.93;;;26.80;55.90;;;;;;4823868;29;87337;-80
2022/08/11 17:50:51;;;;;;;4.82;1.30;;;26.70;57.00;;;;;;4828669;29;87181;-82
2022/08/11 18:01:38;;;;;;;3.58;0.93;;;26.70;57.30;;;;;;4830552;29;86400;-82
2022/08/11 18:04:05;;;;;;;3.53;1.25;;;26.60;57.40;;;;;;4827019;29;86315;-83
2022/08/11 18:06:33;;;;;;;2.55;1.30;;;26.50;57.20;;;;;;4826746;29;86375;-82
